sensor_id;sensor_type;location;lat;lon;timestamp;P1;durP1;ratioP1;P2;durP2;ratioP2
37595;SDS011;23442;48.182;11.552;2022-09-21T00:01:08;27.53;;;6.23;;
37595;SDS011;23442;48.182;11.552;2022-09-21T00:03:36;16.93;;;4.60;;
37595;SDS011;23442;48.182;11.552;2022-09-21T00:06:05;29.87;;;6.47;;
37595;SDS011;23442;48.182;11.552;2022-09-21T00:08:33;26.50;;;5.50;;
37595;SDS011;23442;48.182;11.552;2022-09-21T00:11:00;8.07;;;3.17;;
37595;SDS011;23442;48.182;11.552;2022-09-21T00:13:27;27.57;;;6.47;;
37595;SDS011;23442;48.182;11.552;2022-09-21T00:15:54;30.73;;;6.63;;
37595;SDS011;23442;48.182;11.552;2022-09-21T00:18:20;18.27;;;4.37;;
37595;SDS011;23442;48.182;11.552;2022-09-21T00:20:47;15.47;;;3.97;;
37595;SDS011;23442;48.182;11.552;2022-09-21T00:23:13;12.03;;;3.80;;
37595;SDS011;23442;48.182;11.552;2022-09-21T00:25:39;17.77;;;4.70;;
37595;SDS011;23442;48.182;11.552;2022-09-21T00:28:05;14.83;;;3.93;;
37595;SDS011;23442;48.182;11.552;2022-09-21T00:30:31;18.30;;;5.10;;
37595;SDS011;23442;48.182;11.552;2022-09-21T00:32:58;27.53;;;6.33;;
37595;SDS011;23442;48.182;11.552;2022-09-21T00:35:24;23.10;;;5.37;;
37595;SDS011;23442;48.182;11.552;2022-09-21T00:37:50;12.73;;;3.47;;
37595;SDS011;23442;48.182;11.552;2022-09-21T00:40:16;17.80;;;4.40;;
37595;SDS011;23442;48.182;11.552;2022-09-21T00:42:42;19.13;;;4.43;;
37595;SDS011;23442;48.182;11.552;2022-09-21T00:45:10;20.33;;;4.83;;
37595;SDS011;23442;48.182;11.552;2022-09-21T00:47:45;13.63;;;3.77;;
37595;SDS011;23442;48.182;11.552;2022-09-21T00:50:15;21.57;;;5.20;;
37595;SDS011;23442;48.182;11.552;2022-09-21T00:52:47;10.70;;;3.60;;
37595;SDS011;23442;48.182;11.552;2022-09-21T00:55:22;23.77;;;5.23;;
37595;SDS011;23442;48.182;11.552;2022-09-21T00:57:57;15.33;;;3.87;;
37595;SDS011;23442;48.182;11.552;2022-09-21T01:00:27;28.27;;;6.93;;
37595;SDS011;23442;48.182;11.552;2022-09-21T01:02:53;16.87;;;4.33;;
37595;SDS011;23442;48.182;11.552;2022-09-21T01:05:25;18.80;;;4.73;;
37595;SDS011;23442;48.182;11.552;2022-09-21T01:07:52;11.87;;;3.83;;
37595;SDS011;23442;48.182;11.552;2022-09-21T01:10:21;21.33;;;5.47;;
37595;SDS011;23442;48.182;11.552;2022-09-21T01:12:54;17.77;;;4.40;;
37595;SDS011;23442;48.182;11.552;2022-09-21T01:15:40;19.00;;;5.13;;
37595;SDS011;23442;48.182;11.552;2022-09-21T01:24:15;11.57;;;3.67;;
37595;SDS011;23442;48.182;11.552;2022-09-21T01:29:54;24.63;;;5.60;;
37595;SDS011;23442;48.182;11.552;2022-09-21T01:35:20;15.10;;;4.10;;
37595;SDS011;23442;48.182;11.552;2022-09-21T01:38:00;15.37;;;4.23;;
37595;SDS011;23442;48.182;11.552;2022-09-21T01:40:30;17.27;;;4.83;;
37595;SDS011;23442;48.182;11.552;2022-09-21T01:42:59;7.47;;;3.07;;
37595;SDS011;23442;48.182;11.552;2022-09-21T01:45:31;6.97;;;3.37;;
37595;SDS011;23442;48.182;11.552;2022-09-21T01:48:01;22.67;;;5.47;;
37595;SDS011;23442;48.182;11.552;2022-09-21T01:50:30;10.00;;;3.60;;
37595;SDS011;23442;48.182;11.552;2022-09-21T01:53:08;23.40;;;5.50;;
37595;SDS011;23442;48.182;11.552;2022-09-21T01:55:56;21.17;;;5.00;;
37595;SDS011;23442;48.182;11.552;2022-09-21T02:01:46;14.90;;;3.90;;
37595;SDS011;23442;48.182;11.552;2022-09-21T02:04:17;16.93;;;4.27;;
37595;SDS011;23442;48.182;11.552;2022-09-21T02:06:45;14.37;;;4.03;;
37595;SDS011;23442;48.182;11.552;2022-09-21T02:09:11;12.27;;;3.67;;
37595;SDS011;23442;48.182;11.552;2022-09-21T02:11:38;15.70;;;4.20;;
37595;SDS011;23442;48.182;11.552;2022-09-21T02:14:14;14.40;;;4.20;;
37595;SDS011;23442;48.182;11.552;2022-09-21T02:19:09;19.90;;;4.90;;
37595;SDS011;23442;48.182;11.552;2022-09-21T02:24:32;21.33;;;5.33;;
37595;SDS011;23442;48.182;11.552;2022-09-21T02:27:17;32.97;;;6.57;;
37595;SDS011;23442;48.182;11.552;2022-09-21T02:38:21;27.20;;;6.03;;
37595;SDS011;23442;48.182;11.552;2022-09-21T02:41:06;28.07;;;6.43;;
37595;SDS011;23442;48.182;11.552;2022-09-21T02:46:16;32.90;;;7.23;;
37595;SDS011;23442;48.182;11.552;2022-09-21T02:49:02;27.87;;;6.47;;
37595;SDS011;23442;48.182;11.552;2022-09-21T02:51:33;11.40;;;3.77;;
37595;SDS011;23442;48.182;11.552;2022-09-21T02:54:05;31.53;;;6.63;;
37595;SDS011;23442;48.182;11.552;2022-09-21T02:56:33;25.67;;;5.87;;
37595;SDS011;23442;48.182;11.552;2022-09-21T02:59:00;35.47;;;7.33;;
37595;SDS011;23442;48.182;11.552;2022-09-21T03:01:29;35.07;;;7.20;;
37595;SDS011;23442;48.182;11.552;2022-09-21T03:03:56;25.90;;;6.20;;
37595;SDS011;23442;48.182;11.552;2022-09-21T03:06:22;23.00;;;5.53;;
37595;SDS011;23442;48.182;11.552;2022-09-21T03:08:48;21.10;;;5.10;;
37595;SDS011;23442;48.182;11.552;2022-09-21T03:11:18;32.67;;;6.90;;
37595;SDS011;23442;48.182;11.552;2022-09-21T03:13:44;27.03;;;6.47;;
37595;SDS011;23442;48.182;11.552;2022-09-21T03:16:10;31.63;;;7.00;;
37595;SDS011;23442;48.182;11.552;2022-09-21T03:18:37;41.10;;;8.00;;
37595;SDS011;23442;48.182;11.552;2022-09-21T03:21:04;26.47;;;6.17;;
37595;SDS011;23442;48.182;11.552;2022-09-21T03:23:30;29.17;;;5.93;;
37595;SDS011;23442;48.182;11.552;2022-09-21T03:25:56;48.80;;;9.33;;
37595;SDS011;23442;48.182;11.552;2022-09-21T03:28:22;25.10;;;5.53;;
37595;SDS011;23442;48.182;11.552;2022-09-21T03:30:49;21.00;;;5.73;;
37595;SDS011;23442;48.182;11.552;2022-09-21T03:33:16;24.67;;;5.73;;
37595;SDS011;23442;48.182;11.552;2022-09-21T03:35:46;35.57;;;7.57;;
37595;SDS011;23442;48.182;11.552;2022-09-21T03:38:13;36.17;;;7.03;;
37595;SDS011;23442;48.182;11.552;2022-09-21T03:40:43;22.17;;;5.50;;
37595;SDS011;23442;48.182;11.552;2022-09-21T03:43:10;34.57;;;7.00;;
37595;SDS011;23442;48.182;11.552;2022-09-21T03:45:36;27.53;;;6.27;;
37595;SDS011;23442;48.182;11.552;2022-09-21T03:48:04;18.47;;;4.73;;
37595;SDS011;23442;48.182;11.552;2022-09-21T03:50:31;27.73;;;6.43;;
37595;SDS011;23442;48.182;11.552;2022-09-21T03:52:57;32.63;;;7.00;;
37595;SDS011;23442;48.182;11.552;2022-09-21T03:55:23;35.87;;;7.37;;
37595;SDS011;23442;48.182;11.552;2022-09-21T03:57:50;17.87;;;5.00;;
37595;SDS011;23442;48.182;11.552;2022-09-21T04:00:16;13.83;;;3.97;;
37595;SDS011;23442;48.182;11.552;2022-09-21T04:02:43;20.70;;;5.00;;
37595;SDS011;23442;48.182;11.552;2022-09-21T04:05:10;38.60;;;7.73;;
37595;SDS011;23442;48.182;11.552;2022-09-21T04:07:38;32.80;;;6.93;;
37595;SDS011;23442;48.182;11.552;2022-09-21T04:10:06;23.00;;;5.20;;
37595;SDS011;23442;48.182;11.552;2022-09-21T04:12:37;25.20;;;5.83;;
37595;SDS011;23442;48.182;11.552;2022-09-21T04:15:08;41.43;;;8.53;;
37595;SDS011;23442;48.182;11.552;2022-09-21T04:17:36;35.47;;;7.37;;
37595;SDS011;23442;48.182;11.552;2022-09-21T04:20:02;34.30;;;7.27;;
37595;SDS011;23442;48.182;11.552;2022-09-21T04:22:29;30.47;;;6.63;;
37595;SDS011;23442;48.182;11.552;2022-09-21T04:24:56;32.67;;;6.77;;
37595;SDS011;23442;48.182;11.552;2022-09-21T04:27:22;20.13;;;5.07;;
37595;SDS011;23442;48.182;11.552;2022-09-21T04:29:48;32.63;;;6.90;;
37595;SDS011;23442;48.182;11.552;2022-09-21T04:32:15;28.43;;;8.40;;
37595;SDS011;23442;48.182;11.552;2022-09-21T04:34:41;34.33;;;14.80;;
37595;SDS011;23442;48.182;11.552;2022-09-21T04:37:08;21.93;;;7.20;;
37595;SDS011;23442;48.182;11.552;2022-09-21T04:39:37;15.20;;;4.40;;
37595;SDS011;23442;48.182;11.552;2022-09-21T04:42:04;16.93;;;4.67;;
37595;SDS011;23442;48.182;11.552;2022-09-21T04:44:31;24.67;;;5.43;;
37595;SDS011;23442;48.182;11.552;2022-09-21T04:46:57;19.80;;;4.90;;
37595;SDS011;23442;48.182;11.552;2022-09-21T04:49:24;15.13;;;4.60;;
37595;SDS011;23442;48.182;11.552;2022-09-21T04:51:50;9.37;;;3.60;;
37595;SDS011;23442;48.182;11.552;2022-09-21T04:54:16;24.97;;;5.60;;
37595;SDS011;23442;48.182;11.552;2022-09-21T04:56:42;33.60;;;7.00;;
37595;SDS011;23442;48.182;11.552;2022-09-21T04:59:08;18.53;;;4.80;;
37595;SDS011;23442;48.182;11.552;2022-09-21T05:01:34;29.73;;;6.70;;
37595;SDS011;23442;48.182;11.552;2022-09-21T05:04:00;25.43;;;5.80;;
37595;SDS011;23442;48.182;11.552;2022-09-21T05:06:27;19.40;;;5.10;;
37595;SDS011;23442;48.182;11.552;2022-09-21T05:08:54;36.07;;;7.40;;
37595;SDS011;23442;48.182;11.552;2022-09-21T05:11:39;17.00;;;4.53;;
37595;SDS011;23442;48.182;11.552;2022-09-21T05:14:05;14.30;;;4.47;;
37595;SDS011;23442;48.182;11.552;2022-09-21T05:16:32;28.47;;;6.37;;
37595;SDS011;23442;48.182;11.552;2022-09-21T05:18:58;28.33;;;6.87;;
37595;SDS011;23442;48.182;11.552;2022-09-21T05:21:24;25.83;;;6.27;;
37595;SDS011;23442;48.182;11.552;2022-09-21T05:23:50;23.53;;;5.90;;
37595;SDS011;23442;48.182;11.552;2022-09-21T05:26:17;32.47;;;8.07;;
37595;SDS011;23442;48.182;11.552;2022-09-21T05:28:43;24.10;;;6.97;;
37595;SDS011;23442;48.182;11.552;2022-09-21T05:36:44;21.40;;;6.07;;
37595;SDS011;23442;48.182;11.552;2022-09-21T05:39:13;23.97;;;6.13;;
37595;SDS011;23442;48.182;11.552;2022-09-21T05:41:40;12.87;;;4.57;;
37595;SDS011;23442;48.182;11.552;2022-09-21T05:44:08;19.03;;;5.03;;
37595;SDS011;23442;48.182;11.552;2022-09-21T05:46:38;15.30;;;4.63;;
37595;SDS011;23442;48.182;11.552;2022-09-21T05:49:13;20.80;;;5.47;;
37595;SDS011;23442;48.182;11.552;2022-09-21T06:00:11;32.73;;;12.10;;
37595;SDS011;23442;48.182;11.552;2022-09-21T06:05:27;22.87;;;5.97;;
37595;SDS011;23442;48.182;11.552;2022-09-21T06:07:54;30.83;;;8.27;;
37595;SDS011;23442;48.182;11.552;2022-09-21T06:10:20;21.77;;;6.27;;
37595;SDS011;23442;48.182;11.552;2022-09-21T06:12:48;27.83;;;6.83;;
37595;SDS011;23442;48.182;11.552;2022-09-21T06:15:14;27.90;;;6.73;;
37595;SDS011;23442;48.182;11.552;2022-09-21T06:17:40;18.97;;;5.30;;
37595;SDS011;23442;48.182;11.552;2022-09-21T06:20:07;22.40;;;6.57;;
37595;SDS011;23442;48.182;11.552;2022-09-21T06:22:34;22.47;;;6.10;;
37595;SDS011;23442;48.182;11.552;2022-09-21T06:25:00;26.83;;;6.50;;
37595;SDS011;23442;48.182;11.552;2022-09-21T06:27:26;21.30;;;6.47;;
37595;SDS011;23442;48.182;11.552;2022-09-21T06:29:53;31.37;;;8.13;;
37595;SDS011;23442;48.182;11.552;2022-09-21T06:32:19;27.13;;;7.60;;
37595;SDS011;23442;48.182;11.552;2022-09-21T06:34:45;26.27;;;6.73;;
37595;SDS011;23442;48.182;11.552;2022-09-21T06:37:11;33.20;;;8.00;;
37595;SDS011;23442;48.182;11.552;2022-09-21T06:39:37;39.43;;;8.90;;
37595;SDS011;23442;48.182;11.552;2022-09-21T06:42:03;20.67;;;6.37;;
37595;SDS011;23442;48.182;11.552;2022-09-21T06:44:29;17.13;;;6.03;;
37595;SDS011;23442;48.182;11.552;2022-09-21T06:46:55;22.97;;;7.67;;
37595;SDS011;23442;48.182;11.552;2022-09-21T06:49:21;15.70;;;5.90;;
37595;SDS011;23442;48.182;11.552;2022-09-21T06:51:48;32.27;;;8.53;;
37595;SDS011;23442;48.182;11.552;2022-09-21T06:54:14;26.93;;;7.53;;
37595;SDS011;23442;48.182;11.552;2022-09-21T06:56:41;19.30;;;7.07;;
37595;SDS011;23442;48.182;11.552;2022-09-21T06:59:08;37.07;;;9.00;;
37595;SDS011;23442;48.182;11.552;2022-09-21T07:01:34;29.27;;;8.03;;
37595;SDS011;23442;48.182;11.552;2022-09-21T07:04:00;21.00;;;7.07;;
37595;SDS011;23442;48.182;11.552;2022-09-21T07:06:26;21.67;;;7.33;;
37595;SDS011;23442;48.182;11.552;2022-09-21T07:08:53;24.10;;;8.17;;
37595;SDS011;23442;48.182;11.552;2022-09-21T07:11:20;30.73;;;8.57;;
37595;SDS011;23442;48.182;11.552;2022-09-21T07:13:48;27.40;;;8.03;;
37595;SDS011;23442;48.182;11.552;2022-09-21T07:16:14;26.33;;;7.73;;
37595;SDS011;23442;48.182;11.552;2022-09-21T07:18:40;19.07;;;6.60;;
37595;SDS011;23442;48.182;11.552;2022-09-21T07:21:07;27.07;;;7.60;;
37595;SDS011;23442;48.182;11.552;2022-09-21T07:23:34;23.80;;;8.43;;
37595;SDS011;23442;48.182;11.552;2022-09-21T07:26:02;19.67;;;7.03;;
37595;SDS011;23442;48.182;11.552;2022-09-21T07:28:30;28.30;;;8.30;;
37595;SDS011;23442;48.182;11.552;2022-09-21T07:30:57;26.60;;;8.17;;
37595;SDS011;23442;48.182;11.552;2022-09-21T07:33:24;30.53;;;9.17;;
37595;SDS011;23442;48.182;11.552;2022-09-21T07:35:51;31.17;;;8.70;;
37595;SDS011;23442;48.182;11.552;2022-09-21T07:38:18;27.73;;;8.27;;
37595;SDS011;23442;48.182;11.552;2022-09-21T07:40:44;21.13;;;7.63;;
37595;SDS011;23442;48.182;11.552;2022-09-21T07:43:10;38.00;;;9.63;;
37595;SDS011;23442;48.182;11.552;2022-09-21T07:45:36;13.70;;;5.17;;
37595;SDS011;23442;48.182;11.552;2022-09-21T07:48:06;14.83;;;6.17;;
37595;SDS011;23442;48.182;11.552;2022-09-21T07:50:35;19.80;;;6.10;;
37595;SDS011;23442;48.182;11.552;2022-09-21T07:53:02;23.90;;;6.27;;
37595;SDS011;23442;48.182;11.552;2022-09-21T07:55:29;12.47;;;3.63;;
37595;SDS011;23442;48.182;11.552;2022-09-21T07:57:55;18.27;;;5.50;;
37595;SDS011;23442;48.182;11.552;2022-09-21T08:00:40;14.87;;;4.33;;
37595;SDS011;23442;48.182;11.552;2022-09-21T08:03:06;29.30;;;6.63;;
37595;SDS011;23442;48.182;11.552;2022-09-21T08:05:32;16.73;;;4.57;;
37595;SDS011;23442;48.182;11.552;2022-09-21T08:07:58;20.60;;;5.20;;
37595;SDS011;23442;48.182;11.552;2022-09-21T08:10:25;22.87;;;5.23;;
37595;SDS011;23442;48.182;11.552;2022-09-21T08:12:52;18.37;;;5.27;;
37595;SDS011;23442;48.182;11.552;2022-09-21T08:15:18;10.37;;;3.77;;
37595;SDS011;23442;48.182;11.552;2022-09-21T08:17:45;22.73;;;5.60;;
37595;SDS011;23442;48.182;11.552;2022-09-21T08:20:11;22.23;;;4.97;;
37595;SDS011;23442;48.182;11.552;2022-09-21T08:22:37;13.00;;;3.77;;
37595;SDS011;23442;48.182;11.552;2022-09-21T08:25:04;21.77;;;5.37;;
37595;SDS011;23442;48.182;11.552;2022-09-21T08:27:31;12.43;;;3.50;;
37595;SDS011;23442;48.182;11.552;2022-09-21T08:29:57;10.03;;;3.43;;
37595;SDS011;23442;48.182;11.552;2022-09-21T08:32:23;22.13;;;4.47;;
37595;SDS011;23442;48.182;11.552;2022-09-21T08:34:49;17.13;;;4.30;;
37595;SDS011;23442;48.182;11.552;2022-09-21T08:37:16;15.97;;;3.77;;
37595;SDS011;23442;48.182;11.552;2022-09-21T08:39:43;26.90;;;5.47;;
37595;SDS011;23442;48.182;11.552;2022-09-21T08:42:16;21.00;;;4.07;;
37595;SDS011;23442;48.182;11.552;2022-09-21T08:45:22;15.33;;;3.27;;
37595;SDS011;23442;48.182;11.552;2022-09-21T08:47:52;17.00;;;3.67;;
37595;SDS011;23442;48.182;11.552;2022-09-21T08:53:10;16.10;;;3.53;;
37595;SDS011;23442;48.182;11.552;2022-09-21T08:55:38;19.93;;;4.07;;
37595;SDS011;23442;48.182;11.552;2022-09-21T08:58:08;13.43;;;3.20;;
37595;SDS011;23442;48.182;11.552;2022-09-21T09:00:50;17.50;;;3.83;;
37595;SDS011;23442;48.182;11.552;2022-09-21T09:11:58;19.87;;;3.87;;
37595;SDS011;23442;48.182;11.552;2022-09-21T09:25:32;21.60;;;4.63;;
37595;SDS011;23442;48.182;11.552;2022-09-21T09:30:55;15.07;;;3.10;;
37595;SDS011;23442;48.182;11.552;2022-09-21T09:33:28;18.40;;;3.80;;
37595;SDS011;23442;48.182;11.552;2022-09-21T09:36:06;31.10;;;5.07;;
37595;SDS011;23442;48.182;11.552;2022-09-21T09:50:27;20.87;;;3.83;;
37595;SDS011;23442;48.182;11.552;2022-09-21T09:52:48;16.07;;;3.07;;
37595;SDS011;23442;48.182;11.552;2022-09-21T09:55:18;29.47;;;5.10;;
37595;SDS011;23442;48.182;11.552;2022-09-21T09:57:49;15.67;;;3.13;;
37595;SDS011;23442;48.182;11.552;2022-09-21T10:00:19;17.90;;;3.43;;
37595;SDS011;23442;48.182;11.552;2022-09-21T10:05:20;24.43;;;4.33;;
37595;SDS011;23442;48.182;11.552;2022-09-21T10:07:59;19.90;;;3.20;;
37595;SDS011;23442;48.182;11.552;2022-09-21T10:10:35;21.23;;;3.97;;
37595;SDS011;23442;48.182;11.552;2022-09-21T10:15:30;23.87;;;3.90;;
37595;SDS011;23442;48.182;11.552;2022-09-21T10:18:00;12.53;;;2.60;;
37595;SDS011;23442;48.182;11.552;2022-09-21T10:20:32;21.93;;;3.73;;
37595;SDS011;23442;48.182;11.552;2022-09-21T10:22:58;17.73;;;3.27;;
37595;SDS011;23442;48.182;11.552;2022-09-21T10:25:25;24.10;;;4.23;;
37595;SDS011;23442;48.182;11.552;2022-09-21T10:27:51;23.80;;;3.87;;
37595;SDS011;23442;48.182;11.552;2022-09-21T10:30:36;39.03;;;5.80;;
37595;SDS011;23442;48.182;11.552;2022-09-21T10:33:03;30.83;;;4.67;;
37595;SDS011;23442;48.182;11.552;2022-09-21T10:35:49;36.87;;;5.93;;
37595;SDS011;23442;48.182;11.552;2022-09-21T10:38:20;18.83;;;3.37;;
37595;SDS011;23442;48.182;11.552;2022-09-21T10:40:54;23.87;;;4.03;;
37595;SDS011;23442;48.182;11.552;2022-09-21T10:43:32;17.70;;;2.97;;
37595;SDS011;23442;48.182;11.552;2022-09-21T10:46:00;32.43;;;5.87;;
37595;SDS011;23442;48.182;11.552;2022-09-21T10:48:26;14.20;;;2.67;;
37595;SDS011;23442;48.182;11.552;2022-09-21T10:50:53;25.90;;;4.37;;
37595;SDS011;23442;48.182;11.552;2022-09-21T10:55:58;31.67;;;5.60;;
37595;SDS011;23442;48.182;11.552;2022-09-21T10:58:30;21.80;;;4.00;;
37595;SDS011;23442;48.182;11.552;2022-09-21T11:01:11;24.40;;;4.27;;
37595;SDS011;23442;48.182;11.552;2022-09-21T11:03:50;27.00;;;4.33;;
37595;SDS011;23442;48.182;11.552;2022-09-21T11:06:20;17.57;;;3.07;;
37595;SDS011;23442;48.182;11.552;2022-09-21T11:22:44;21.13;;;3.77;;
37595;SDS011;23442;48.182;11.552;2022-09-21T11:28:33;24.73;;;4.23;;
37595;SDS011;23442;48.182;11.552;2022-09-21T11:36:49;16.20;;;3.40;;
37595;SDS011;23442;48.182;11.552;2022-09-21T11:45:09;14.87;;;2.97;;
37595;SDS011;23442;48.182;11.552;2022-09-21T11:48:13;20.30;;;3.83;;
37595;SDS011;23442;48.182;11.552;2022-09-21T11:53:45;14.20;;;2.70;;
37595;SDS011;23442;48.182;11.552;2022-09-21T12:02:02;18.70;;;5.40;;
37595;SDS011;23442;48.182;11.552;2022-09-21T12:15:25;33.97;;;6.57;;
37595;SDS011;23442;48.182;11.552;2022-09-21T12:18:08;32.03;;;6.03;;
37595;SDS011;23442;48.182;11.552;2022-09-21T12:23:19;24.60;;;4.22;;
37595;SDS011;23442;48.182;11.552;2022-09-21T12:26:00;28.20;;;4.73;;
37595;SDS011;23442;48.182;11.552;2022-09-21T12:28:29;26.83;;;3.93;;
37595;SDS011;23442;48.182;11.552;2022-09-21T12:31:12;21.70;;;3.63;;
37595;SDS011;23442;48.182;11.552;2022-09-21T12:33:50;13.30;;;2.57;;
37595;SDS011;23442;48.182;11.552;2022-09-21T12:36:26;18.23;;;3.53;;
37595;SDS011;23442;48.182;11.552;2022-09-21T12:42:39;23.40;;;4.23;;
37595;SDS011;23442;48.182;11.552;2022-09-21T12:45:12;17.47;;;3.90;;
37595;SDS011;23442;48.182;11.552;2022-09-21T12:50:29;16.83;;;2.73;;
37595;SDS011;23442;48.182;11.552;2022-09-21T12:53:19;17.10;;;3.08;;
37595;SDS011;23442;48.182;11.552;2022-09-21T12:56:00;31.88;;;5.03;;
37595;SDS011;23442;48.182;11.552;2022-09-21T12:58:36;19.55;;;3.35;;
37595;SDS011;23442;48.182;11.552;2022-09-21T13:09:41;11.43;;;2.40;;
37595;SDS011;23442;48.182;11.552;2022-09-21T13:12:10;20.15;;;3.55;;
37595;SDS011;23442;48.182;11.552;2022-09-21T13:15:04;16.50;;;3.70;;
37595;SDS011;23442;48.182;11.552;2022-09-21T13:18:04;31.75;;;5.15;;
37595;SDS011;23442;48.182;11.552;2022-09-21T13:20:40;21.63;;;3.58;;
37595;SDS011;23442;48.182;11.552;2022-09-21T13:23:14;20.83;;;3.75;;
37595;SDS011;23442;48.182;11.552;2022-09-21T13:26:06;24.60;;;4.35;;
37595;SDS011;23442;48.182;11.552;2022-09-21T13:34:39;26.25;;;4.63;;
37595;SDS011;23442;48.182;11.552;2022-09-21T13:44:53;19.52;;;3.40;;
37595;SDS011;23442;48.182;11.552;2022-09-21T13:47:30;16.98;;;3.10;;
37595;SDS011;23442;48.182;11.552;2022-09-21T13:50:02;14.93;;;2.65;;
37595;SDS011;23442;48.182;11.552;2022-09-21T13:52:37;13.60;;;2.63;;
37595;SDS011;23442;48.182;11.552;2022-09-21T13:55:28;21.88;;;4.10;;
37595;SDS011;23442;48.182;11.552;2022-09-21T13:58:02;24.85;;;4.00;;
37595;SDS011;23442;48.182;11.552;2022-09-21T14:03:33;25.60;;;4.15;;
37595;SDS011;23442;48.182;11.552;2022-09-21T14:08:31;25.83;;;4.22;;
37595;SDS011;23442;48.182;11.552;2022-09-21T14:11:14;19.88;;;3.42;;
37595;SDS011;23442;48.182;11.552;2022-09-21T14:13:45;20.33;;;3.88;;
37595;SDS011;23442;48.182;11.552;2022-09-21T14:19:02;14.93;;;2.80;;
37595;SDS011;23442;48.182;11.552;2022-09-21T14:27:14;23.38;;;3.88;;
37595;SDS011;23442;48.182;11.552;2022-09-21T14:30:04;22.20;;;3.65;;
37595;SDS011;23442;48.182;11.552;2022-09-21T14:32:46;18.08;;;3.50;;
37595;SDS011;23442;48.182;11.552;2022-09-21T14:35:19;21.48;;;3.95;;
37595;SDS011;23442;48.182;11.552;2022-09-21T14:37:57;15.77;;;2.72;;
37595;SDS011;23442;48.182;11.552;2022-09-21T14:40:27;17.70;;;3.13;;
37595;SDS011;23442;48.182;11.552;2022-09-21T14:42:56;23.25;;;4.35;;
37595;SDS011;23442;48.182;11.552;2022-09-21T14:57:11;23.00;;;3.83;;
37595;SDS011;23442;48.182;11.552;2022-09-21T15:02:38;24.27;;;4.20;;
37595;SDS011;23442;48.182;11.552;2022-09-21T15:10:52;21.52;;;3.83;;
37595;SDS011;23442;48.182;11.552;2022-09-21T15:18:50;19.77;;;3.67;;
37595;SDS011;23442;48.182;11.552;2022-09-21T15:21:28;25.73;;;4.78;;
37595;SDS011;23442;48.182;11.552;2022-09-21T15:23:56;16.73;;;3.25;;
37595;SDS011;23442;48.182;11.552;2022-09-21T15:28:54;21.83;;;3.97;;
37595;SDS011;23442;48.182;11.552;2022-09-21T15:31:21;41.58;;;6.82;;
37595;SDS011;23442;48.182;11.552;2022-09-21T15:33:48;31.90;;;5.63;;
37595;SDS011;23442;48.182;11.552;2022-09-21T15:36:20;21.60;;;4.28;;
37595;SDS011;23442;48.182;11.552;2022-09-21T15:38:48;21.50;;;4.15;;
37595;SDS011;23442;48.182;11.552;2022-09-21T15:44:14;22.25;;;3.97;;
37595;SDS011;23442;48.182;11.552;2022-09-21T15:46:47;34.55;;;5.65;;
37595;SDS011;23442;48.182;11.552;2022-09-21T15:49:24;11.10;;;2.60;;
37595;SDS011;23442;48.182;11.552;2022-09-21T15:54:41;23.27;;;4.20;;
37595;SDS011;23442;48.182;11.552;2022-09-21T15:59:52;22.83;;;4.28;;
37595;SDS011;23442;48.182;11.552;2022-09-21T16:02:21;22.92;;;4.45;;
37595;SDS011;23442;48.182;11.552;2022-09-21T16:04:49;19.30;;;3.33;;
37595;SDS011;23442;48.182;11.552;2022-09-21T16:09:56;24.38;;;4.43;;
37595;SDS011;23442;48.182;11.552;2022-09-21T16:17:56;20.77;;;3.80;;
37595;SDS011;23442;48.182;11.552;2022-09-21T16:20:23;26.75;;;4.55;;
37595;SDS011;23442;48.182;11.552;2022-09-21T16:22:51;27.48;;;4.50;;
37595;SDS011;23442;48.182;11.552;2022-09-21T16:27:58;25.70;;;4.40;;
37595;SDS011;23442;48.182;11.552;2022-09-21T16:36:03;39.05;;;6.97;;
37595;SDS011;23442;48.182;11.552;2022-09-21T16:38:34;24.90;;;4.45;;
37595;SDS011;23442;48.182;11.552;2022-09-21T16:41:01;24.80;;;4.40;;
37595;SDS011;23442;48.182;11.552;2022-09-21T16:43:27;44.30;;;7.85;;
37595;SDS011;23442;48.182;11.552;2022-09-21T16:45:53;21.73;;;3.90;;
37595;SDS011;23442;48.182;11.552;2022-09-21T16:48:20;30.77;;;5.57;;
37595;SDS011;23442;48.182;11.552;2022-09-21T16:50:46;26.65;;;5.13;;
37595;SDS011;23442;48.182;11.552;2022-09-21T16:53:17;20.65;;;3.95;;
37595;SDS011;23442;48.182;11.552;2022-09-21T16:55:47;21.65;;;4.15;;
37595;SDS011;23442;48.182;11.552;2022-09-21T16:58:13;26.80;;;4.80;;
37595;SDS011;23442;48.182;11.552;2022-09-21T17:00:44;27.08;;;5.32;;
37595;SDS011;23442;48.182;11.552;2022-09-21T17:03:11;28.23;;;5.20;;
37595;SDS011;23442;48.182;11.552;2022-09-21T17:05:38;20.50;;;4.38;;
37595;SDS011;23442;48.182;11.552;2022-09-21T17:08:04;18.27;;;4.10;;
37595;SDS011;23442;48.182;11.552;2022-09-21T17:10:31;21.35;;;4.72;;
37595;SDS011;23442;48.182;11.552;2022-09-21T17:13:00;21.25;;;4.15;;
37595;SDS011;23442;48.182;11.552;2022-09-21T17:15:30;26.40;;;5.03;;
37595;SDS011;23442;48.182;11.552;2022-09-21T17:17:57;47.40;;;8.77;;
37595;SDS011;23442;48.182;11.552;2022-09-21T17:20:37;32.45;;;6.40;;
37595;SDS011;23442;48.182;11.552;2022-09-21T17:23:05;24.98;;;5.40;;
37595;SDS011;23442;48.182;11.552;2022-09-21T17:25:32;21.73;;;5.00;;
37595;SDS011;23442;48.182;11.552;2022-09-21T17:27:59;29.98;;;6.10;;
37595;SDS011;23442;48.182;11.552;2022-09-21T17:30:26;39.50;;;7.47;;
37595;SDS011;23442;48.182;11.552;2022-09-21T17:32:53;20.40;;;4.45;;
37595;SDS011;23442;48.182;11.552;2022-09-21T17:38:02;22.98;;;5.70;;
37595;SDS011;23442;48.182;11.552;2022-09-21T17:40:29;23.58;;;5.75;;
37595;SDS011;23442;48.182;11.552;2022-09-21T17:45:50;36.72;;;7.93;;
37595;SDS011;23442;48.182;11.552;2022-09-21T17:48:37;28.88;;;7.25;;
37595;SDS011;23442;48.182;11.552;2022-09-21T17:51:05;22.88;;;5.95;;
37595;SDS011;23442;48.182;11.552;2022-09-21T17:53:31;27.77;;;6.53;;
37595;SDS011;23442;48.182;11.552;2022-09-21T17:58:55;48.72;;;9.90;;
37595;SDS011;23442;48.182;11.552;2022-09-21T18:01:30;22.15;;;5.72;;
37595;SDS011;23442;48.182;11.552;2022-09-21T18:04:02;71.68;;;14.90;;
37595;SDS011;23442;48.182;11.552;2022-09-21T18:06:28;25.75;;;6.07;;
37595;SDS011;23442;48.182;11.552;2022-09-21T18:08:55;24.98;;;6.63;;
37595;SDS011;23442;48.182;11.552;2022-09-21T18:25:39;60.77;;;12.53;;
37595;SDS011;23442;48.182;11.552;2022-09-21T18:39:43;37.27;;;8.60;;
37595;SDS011;23442;48.182;11.552;2022-09-21T18:42:33;43.80;;;10.13;;
37595;SDS011;23442;48.182;11.552;2022-09-21T18:45:23;58.77;;;13.93;;
37595;SDS011;23442;48.182;11.552;2022-09-21T18:48:29;33.50;;;9.93;;
37595;SDS011;23442;48.182;11.552;2022-09-21T18:53:23;51.67;;;14.43;;
37595;SDS011;23442;48.182;11.552;2022-09-21T18:56:05;56.10;;;15.30;;
37595;SDS011;23442;48.182;11.552;2022-09-21T18:58:32;27.67;;;10.47;;
37595;SDS011;23442;48.182;11.552;2022-09-21T19:00:59;37.78;;;8.88;;
37595;SDS011;23442;48.182;11.552;2022-09-21T19:03:25;26.20;;;6.63;;
37595;SDS011;23442;48.182;11.552;2022-09-21T19:16:39;28.90;;;10.17;;
37595;SDS011;23442;48.182;11.552;2022-09-21T19:31:12;55.57;;;18.83;;
37595;SDS011;23442;48.182;11.552;2022-09-21T19:33:39;39.23;;;17.40;;
37595;SDS011;23442;48.182;11.552;2022-09-21T19:36:07;73.73;;;30.83;;
37595;SDS011;23442;48.182;11.552;2022-09-21T19:38:34;61.37;;;30.73;;